Home > Products > Valid Products > TAF

000
FTUS46 KSTO 281730
TAFSCK
TAF
KSCK 281730Z 2818/2918 31015G22KT P6SM SKC
     FM290300 27010KT P6SM SKC
     FM291700 30006KT P6SM SCT250=



000
FTUS46 KSTO 281730
TAFSMF
TAF
KSMF 281730Z 2818/2918 33014G24KT P6SM SKC
     FM290100 VRB05KT P6SM SKC=



000
FTUS46 KSTO 281730
TAFSAC
TAF
KSAC 281730Z 2818/2918 33012G20KT P6SM SKC
     FM290400 22006KT P6SM SKC=



000
FTUS46 KSTO 281730
TAFMHR
TAF
KMHR 281730Z 2818/2918 33012KT P6SM SKC
     FM290200 VRB05KT P6SM SKC=



000
FTUS46 KSTO 281730
TAFRBL
TAF
KRBL 281730Z 2818/2918 34016G25KT P6SM SKC
     FM290200 32008KT P6SM SKC
     FM291200 34007KT P6SM SCT250=



000
FTUS46 KSTO 281730
TAFRDD
TAF
KRDD 281730Z 2818/2918 36015KT P6SM SKC
     FM290200 35007KT P6SM SKC
     FM291200 35008KT P6SM SCT250=



000
FTUS46 KSTO 281128
TAFRDD
TAF
KRDD 281128Z 2812/2912 34006KT P6SM SKC
     FM281600 36013G20KT P6SM SKC
     FM290200 35007KT P6SM SKC=



000
FTUS46 KSTO 281128
TAFSMF
TAF
KSMF 281128Z 2812/2912 35006KT P6SM SKC WS020/36030KT
     FM281700 33014G22KT P6SM SKC
     FM290100 VRB05KT P6SM SKC=



000
FTUS46 KSTO 281128
TAFSCK
TAF
KSCK 281128Z 2812/2912 29011KT P6SM SKC
     FM281700 31016G25KT P6SM SKC
     FM290300 27010KT P6SM SKC=



000
FTUS46 KSTO 281128
TAFRBL
TAF
KRBL 281128Z 2812/2912 33012KT P6SM SKC
     FM281600 35016G25KT P6SM SKC
     FM290200 34011KT P6SM SKC=



000
FTUS46 KSTO 281128
TAFSAC
TAF
KSAC 281128Z 2812/2912 32006KT P6SM SKC WS020/36030KT
     FM281700 33012G20KT P6SM SKC
     FM290100 VRB05KT P6SM SKC=



000
FTUS46 KSTO 281128
TAFMHR
TAF
KMHR 281128Z 2812/2912 VRB05KT P6SM SKC WS020/36030KT
     FM281700 33012G20KT P6SM SKC
     FM290100 VRB05KT P6SM SKC=



000
FTUS46 KSTO 281128
TAFSMF
TAF
KSMF 281128Z 2812/2912 35006KT P6SM SKC WS020/36030KT
     FM281700 33014G22KT P6SM SKC
     FM290100 VRB05KT P6SM SKC=



000
FTUS46 KSTO 281128
TAFSCK
TAF
KSCK 281128Z 2812/2912 29011KT P6SM SKC
     FM281700 31016G25KT P6SM SKC
     FM290300 27010KT P6SM SKC=



000
FTUS46 KSTO 281128
TAFRDD
TAF
KRDD 281128Z 2812/2912 34006KT P6SM SKC
     FM281600 36013G20KT P6SM SKC
     FM290200 35007KT P6SM SKC=



000
FTUS46 KSTO 281128
TAFRBL
TAF
KRBL 281128Z 2812/2912 33012KT P6SM SKC
     FM281600 35016G25KT P6SM SKC
     FM290200 34011KT P6SM SKC=



000
FTUS46 KSTO 281128
TAFMHR
TAF
KMHR 281128Z 2812/2912 VRB05KT P6SM SKC WS020/36030KT
     FM281700 33012G20KT P6SM SKC
     FM290100 VRB05KT P6SM SKC=



000
FTUS46 KSTO 281128
TAFSAC
TAF
KSAC 281128Z 2812/2912 32006KT P6SM SKC WS020/36030KT
     FM281700 33012G20KT P6SM SKC
     FM290100 VRB05KT P6SM SKC=



000
FTUS46 KSTO 280807 AAA
TAFSAC
TAF AMD
KSAC 280807Z 2808/2906 00000KT 1 1/2SM BR SKC
      TEMPO 2809/2813 1/4SM FG VV001
     FM281800 34010G20KT P6SM SKC
     FM290100 VRB05KT P6SM SKC=



000
FTUS46 KSTO 280520
TAFRBL
TAF
KRBL 280520Z 2806/2906 35010KT P6SM VCSH SCT050 BKN100
     FM281600 35012G20KT P6SM SKC
     FM290000 34010KT P6SM SKC=



000
FTUS46 KSTO 280520
TAFSMF
TAF
KSMF 280520Z 2806/2906 VRB05KT P6SM SCT250
     FM281600 34010KT P6SM SKC
     FM281900 33014G22KT P6SM SKC
     FM290100 VRB06KT P6SM SKC=



000
FTUS46 KSTO 280520
TAFSAC
TAF
KSAC 280520Z 2806/2906 VRB04KT P6SM SCT250
      TEMPO 2806/2808 1SM BR
     FM281800 34010G20KT P6SM SKC
     FM290100 VRB05KT P6SM SKC=



000
FTUS46 KSTO 280520
TAFSCK
TAF
KSCK 280520Z 2806/2906 VRB06KT P6SM SCT250
     FM281700 30012G22KT P6SM SKC
     FM290100 27010KT P6SM SKC=



000
FTUS46 KSTO 280520
TAFMHR
TAF
KMHR 280520Z 2806/2906 VRB04KT P6SM SCT250
     FM281900 33010G18KT P6SM SKC
     FM290100 VRB06KT P6SM SKC=



000
FTUS46 KSTO 280520
TAFRDD
TAF
KRDD 280520Z 2806/2906 34006KT P6SM SCT200
     FM281600 36012G20KT P6SM SKC
     FM290000 35007KT P6SM SKC=



000
FTUS46 KSTO 280215 AAA
TAFSCK
TAF AMD
KSCK 280215Z 2802/2824 28010KT P6SM SCT250
     FM281700 30012G22KT P6SM SKC=



000
FTUS46 KSTO 280215 AAA
TAFSCK
TAF AMD
KSCK 280215Z 2802/2824 28010KT P6SM SCT250
     FM281700 30012G22KT P6SM SKC=



000
FTUS46 KSTO 280214 AAA
TAFMHR
TAF AMD
KMHR 280214Z 2802/2824 VRB06KT P6SM BKN100
     FM281800 33010G18KT P6SM SKC=



000
FTUS46 KSTO 280214 AAA
TAFMHR
TAF AMD
KMHR 280214Z 2802/2824 VRB06KT P6SM BKN100
     FM281800 33010G18KT P6SM SKC=



000
FTUS46 KSTO 280213 AAA
TAFSAC
TAF AMD
KSAC 280213Z 2802/2824 VRB06KT P6SM FEW040 SCT250
     FM281800 34010G20KT P6SM SKC=



000
FTUS46 KSTO 280213 AAA
TAFSAC
TAF AMD
KSAC 280213Z 2802/2824 VRB06KT P6SM FEW040 SCT250
     FM281800 34010G20KT P6SM SKC=



000
FTUS46 KSTO 280211 AAA
TAFSMF
TAF AMD
KSMF 280211Z 2802/2824 18007KT P6SM SCT250
     FM281000 33007KT P6SM FEW250
     FM281800 33014G22KT P6SM SKC
     FM282300 34010KT P6SM SKC=



000
FTUS46 KSTO 280211 AAA
TAFSMF
TAF AMD
KSMF 280211Z 2802/2824 18007KT P6SM SCT250
     FM281000 33007KT P6SM FEW250
     FM281800 33014G22KT P6SM SKC
     FM282300 34010KT P6SM SKC=



000
FTUS46 KSTO 272338
TAFSAC
TAF
KSAC 272338Z 2800/2824 VRB06KT P6SM VCSH BKN060
      TEMPO 2800/2803 34010G18KT P6SM -TSRA BKN050CB
     FM281700 34012G20KT P6SM SKC=



000
FTUS46 KSTO 272338
TAFSCK
TAF
KSCK 272338Z 2800/2824 26014G22KT P6SM VCSH SCT050
     FM280300 26012KT P6SM SCT250
     FM281700 30012G22KT P6SM SKC=



000
FTUS46 KSTO 272338
TAFRBL
TAF
KRBL 272338Z 2800/2824 35010KT P6SM VCSH SCT050 BKN100
     FM281600 35012G20KT P6SM SKC=



000
FTUS46 KSTO 272338
TAFMHR
TAF
KMHR 272338Z 2800/2824 VRB06KT P6SM VCSH BKN050
      TEMPO 2800/2803 12010G18KT P6SM -TSRA BKN050CB
     FM281700 33010G18KT P6SM SKC=



000
FTUS46 KSTO 272338
TAFSMF
TAF
KSMF 272338Z 2800/2824 33007KT P6SM VCSH BKN060
      TEMPO 2800/2803 34010G20KT P6SM -TSRA BKN050CB
     FM281700 33012G20KT P6SM SKC=



000
FTUS46 KSTO 272338
TAFRDD
TAF
KRDD 272338Z 2800/2824 VRB04KT P6SM VCSH SCT050 BKN100
     FM281000 34008KT P6SM SCT200
     FM281600 36012G20KT P6SM SKC=



000
FTUS46 KSTO 271741
TAFRDD
TAF
KRDD 271741Z 2718/2818 31006KT P6SM VCSH SCT050 OVC080
      TEMPO 2718/2722 P6SM -SHRA OVC050
     FM280600 35008KT P6SM SCT250=



000
FTUS46 KSTO 271741
TAFSCK
TAF
KSCK 271741Z 2718/2818 27009KT P6SM BKN060
      TEMPO 2719/2723 P6SM -TSRA BKN050CB
     FM272300 27014G22KT P6SM VCSH BKN050
     FM280400 26010KT P6SM SCT250=



000
FTUS46 KSTO 271741
TAFSAC
TAF
KSAC 271741Z 2718/2818 20010KT P6SM SCT100
      TEMPO 2719/2723 P6SM -TSRA BKN050CB
     FM272300 27010G15KT P6SM VCSH OVC060
     FM280600 30005KT P6SM BKN100=



000
FTUS46 KSTO 271741
TAFRBL
TAF
KRBL 271741Z 2718/2818 18005KT P6SM VCSH SCT050 OVC080
      TEMPO 2718/2722 P6SM -SHRA OVC050
     FM272200 35010KT P6SM VCTS BKN050CB
     FM280600 34008KT P6SM SCT250=



000
FTUS46 KSTO 271741
TAFMHR
TAF
KMHR 271741Z 2718/2818 15006KT P6SM SCT100
      TEMPO 2719/2723 P6SM -TSRA BKN050CB
     FM272300 24010G15KT P6SM VCSH BKN050
     FM280600 VRB05KT P6SM BKN100=



000
FTUS46 KSTO 271741
TAFSMF
TAF
KSMF 271741Z 2718/2818 15006KT P6SM BKN100
      TEMPO 2719/2723 P6SM -TSRA BKN050CB
     FM272300 20010KT P6SM VCSH BKN060
     FM280600 30006KT P6SM BKN100=



000
FTUS46 KSTO 271120
TAFSCK
TAF
KSCK 271120Z 2712/2812 27009KT P6SM FEW250
     FM271900 27010G20KT P6SM VCSH BKN050
     FM280300 25012KT P6SM BKN100=



000
FTUS46 KSTO 271120
TAFSAC
TAF
KSAC 271120Z 2712/2812 17005KT P6SM FEW180
     FM271800 20010KT P6SM OVC100
     FM272000 21010G15KT P6SM VCSH OVC060
     FM280600 30005KT P6SM BKN100=



000
FTUS46 KSTO 271120
TAFMHR
TAF
KMHR 271120Z 2712/2812 15006KT P6SM FEW180
     FM272100 22010G15KT P6SM VCSH BKN050
     FM280600 VRB05KT P6SM BKN100=



000
FTUS46 KSTO 271120
TAFSMF
TAF
KSMF 271120Z 2712/2812 15006KT P6SM FEW180
     FM272000 20010KT P6SM VCSH BKN060
     FM280600 30006KT P6SM BKN100=



000
FTUS46 KSTO 271120
TAFRBL
TAF
KRBL 271120Z 2712/2812 VRB05KT P6SM OVC080
     FM271600 18005KT P6SM VCSH OVC050
     FM272300 36010KT P6SM VCSH OVC070
     FM280600 34008KT P6SM OVC100=



000
FTUS46 KSTO 271120
TAFRDD
TAF
KRDD 271120Z 2712/2812 VRB04KT P6SM OVC100
     FM271600 18005KT P6SM VCSH OVC050
     FM272300 28005KT P6SM VCSH OVC050
     FM280600 32006KT P6SM OVC100=



000
FTUS46 KSTO 271120
TAFRDD
TAF
KRDD 271120Z 2712/2812 VRB04KT P6SM OVC100
     FM271600 18005KT P6SM VCSH OVC050
     FM272300 28005KT P6SM VCSH OVC050
     FM280600 32006KT P6SM OVC100=



000
FTUS46 KSTO 271120
TAFSCK
TAF
KSCK 271120Z 2712/2812 27009KT P6SM FEW250
     FM271900 27010G20KT P6SM VCSH BKN050
     FM280300 25012KT P6SM BKN100=



000
FTUS46 KSTO 271120
TAFRBL
TAF
KRBL 271120Z 2712/2812 VRB05KT P6SM OVC080
     FM271600 18005KT P6SM VCSH OVC050
     FM272300 36010KT P6SM VCSH OVC070
     FM280600 34008KT P6SM OVC100=



000
FTUS46 KSTO 271120
TAFMHR
TAF
KMHR 271120Z 2712/2812 15006KT P6SM FEW180
     FM272100 22010G15KT P6SM VCSH BKN050
     FM280600 VRB05KT P6SM BKN100=



000
FTUS46 KSTO 271120
TAFSMF
TAF
KSMF 271120Z 2712/2812 15006KT P6SM FEW180
     FM272000 20010KT P6SM VCSH BKN060
     FM280600 30006KT P6SM BKN100=



000
FTUS46 KSTO 271120
TAFSAC
TAF
KSAC 271120Z 2712/2812 17005KT P6SM FEW180
     FM271800 20010KT P6SM OVC100
     FM272000 21010G15KT P6SM VCSH OVC060
     FM280600 30005KT P6SM BKN100=



000
FTUS46 KSTO 270520
TAFSAC
TAF
KSAC 270520Z 2706/2806 18005KT P6SM OVC100
     FM272200 25007KT P6SM VCSH BKN050=



000
FTUS46 KSTO 270520
TAFSAC
TAF
KSAC 270520Z 2706/2806 18005KT P6SM OVC100
     FM272200 25007KT P6SM VCSH BKN050=



000
FTUS46 KSTO 270520
TAFRDD
TAF
KRDD 270520Z 2706/2806 VRB05KT P6SM OVC100
     FM271400 18005KT P6SM VCSH OVC050
     FM272200 30007KT P6SM -RA BKN050=



000
FTUS46 KSTO 270520
TAFSMF
TAF
KSMF 270520Z 2706/2806 19005KT P6SM OVC100
     FM270800 16007KT P6SM OVC100
     FM272200 26007KT P6SM VCSH BKN050=



000
FTUS46 KSTO 270520
TAFSCK
TAF
KSCK 270520Z 2706/2806 27010KT P6SM BKN100
     FM271200 26007KT P6SM OVC050
     FM272000 27010G20KT P6SM VCSH BKN050
     FM280300 25010KT P6SM BKN100=



000
FTUS46 KSTO 270520
TAFRBL
TAF
KRBL 270520Z 2706/2806 VRB05KT P6SM OVC100
     FM271500 VRB05KT P6SM VCSH OVC050
     FM272200 35010KT P6SM -RA BKN050=



000
FTUS46 KSTO 270520
TAFMHR
TAF
KMHR 270520Z 2706/2806 20005KT P6SM OVC100
     FM270900 15004KT P6SM BKN100
     FM272300 27007KT P6SM VCSH BKN050=



000
FTUS46 KSTO 262353
TAFRDD
TAF
KRDD 262353Z 2700/2724 VRB05KT P6SM OVC100
     FM270600 VRB05KT P6SM VCSH OVC100
     FM271700 19005KT P6SM VCSH OVC050=



000
FTUS46 KSTO 262353
TAFSCK
TAF
KSCK 262353Z 2700/2724 29011KT P6SM OVC120
     FM271200 26007KT P6SM OVC050
     FM272000 27010G20KT P6SM VCSH OVC050=



000
FTUS46 KSTO 262353
TAFRBL
TAF
KRBL 262353Z 2700/2724 VRB04KT P6SM OVC100
     FM270600 VRB06KT P6SM VCSH OVC100
     FM271700 17005KT P6SM VCSH OVC050=



000
FTUS46 KSTO 262353
TAFSAC
TAF
KSAC 262353Z 2700/2724 18005KT P6SM OVC100
     FM271500 20006KT P6SM VCSH OVC050=



000
FTUS46 KSTO 262353
TAFSMF
TAF
KSMF 262353Z 2700/2724 19005KT P6SM OVC100
     FM270700 16006KT P6SM OVC100
     FM271500 18008KT P6SM VCSH OVC050=



000
FTUS46 KSTO 262353
TAFMHR
TAF
KMHR 262353Z 2700/2724 20006KT P6SM OVC100
     FM270900 15005KT P6SM BKN100
     FM271500 VRB05KT P6SM VCSH OVC050=



000
FTUS46 KSTO 262353
TAFSCK
TAF
KSCK 262353Z 2700/2724 29011KT P6SM OVC120
     FM271200 26007KT P6SM OVC050
     FM272000 27010G20KT P6SM VCSH OVC050=



000
FTUS46 KSTO 262353
TAFRBL
TAF
KRBL 262353Z 2700/2724 VRB04KT P6SM OVC100
     FM270600 VRB06KT P6SM VCSH OVC100
     FM271700 17005KT P6SM VCSH OVC050=



000
FTUS46 KSTO 262353
TAFSMF
TAF
KSMF 262353Z 2700/2724 19005KT P6SM OVC100
     FM270700 16006KT P6SM OVC100
     FM271500 18008KT P6SM VCSH OVC050=



000
FTUS46 KSTO 262353
TAFRDD
TAF
KRDD 262353Z 2700/2724 VRB05KT P6SM OVC100
     FM270600 VRB05KT P6SM VCSH OVC100
     FM271700 19005KT P6SM VCSH OVC050=



000
FTUS46 KSTO 262353
TAFSAC
TAF
KSAC 262353Z 2700/2724 18005KT P6SM OVC100
     FM271500 20006KT P6SM VCSH OVC050=



000
FTUS46 KSTO 262353
TAFMHR
TAF
KMHR 262353Z 2700/2724 20006KT P6SM OVC100
     FM270900 15005KT P6SM BKN100
     FM271500 VRB05KT P6SM VCSH OVC050=



000
FTUS46 KSTO 261732
TAFRBL
TAF
KRBL 261732Z 2618/2718 35010KT P6SM BKN250
     FM270000 26006KT P6SM OVC100=



000
FTUS46 KSTO 261732
TAFRDD
TAF
KRDD 261732Z 2618/2718 34011KT P6SM BKN250
     FM270000 28005KT P6SM OVC100=



000
FTUS46 KSTO 261732
TAFMHR
TAF
KMHR 261732Z 2618/2718 20006KT P6SM SCT250
     FM270900 15005KT P6SM BKN100=



000
FTUS46 KSTO 261732
TAFSMF
TAF
KSMF 261732Z 2618/2718 33007KT P6SM SCT250
     FM270700 17006KT P6SM OVC100=



000
FTUS46 KSTO 261732
TAFSAC
TAF
KSAC 261732Z 2618/2718 31008KT P6SM SCT250
     FM270800 18005KT P6SM OVC100=



000
FTUS46 KSTO 261732
TAFSCK
TAF
KSCK 261732Z 2618/2718 32008KT P6SM SKC
     FM262000 28011G17KT P6SM OVC250
     FM270900 26005KT P6SM OVC100=



000
FTUS46 KSTO 261120
TAFSAC
TAF
KSAC 261120Z 2612/2712 31008KT P6SM SCT250
     FM270300 22006KT P6SM BKN250=



000
FTUS46 KSTO 261120
TAFRBL
TAF
KRBL 261120Z 2612/2712 34009KT P6SM SCT250
     FM261800 35010G17KT P6SM BKN250
     FM270000 33006KT P6SM OVC100=



000
FTUS46 KSTO 261120
TAFMHR
TAF
KMHR 261120Z 2612/2712 VRB05KT P6SM SCT250=



000
FTUS46 KSTO 261120
TAFRDD
TAF
KRDD 261120Z 2612/2712 34008KT P6SM BKN250
     FM270000 VRB04KT P6SM OVC100=



000
FTUS46 KSTO 261120
TAFSCK
TAF
KSCK 261120Z 2612/2712 28008KT P6SM SKC
     FM261900 30011G17KT P6SM SCT250
     FM270300 28011KT P6SM BKN250=



000
FTUS46 KSTO 261120
TAFMHR
TAF
KMHR 261120Z 2612/2712 VRB05KT P6SM SCT250=



000
FTUS46 KSTO 261120
TAFSCK
TAF
KSCK 261120Z 2612/2712 28008KT P6SM SKC
     FM261900 30011G17KT P6SM SCT250
     FM270300 28011KT P6SM BKN250=



000
FTUS46 KSTO 261120
TAFRDD
TAF
KRDD 261120Z 2612/2712 34008KT P6SM BKN250
     FM270000 VRB04KT P6SM OVC100=



000
FTUS46 KSTO 261120
TAFSMF
TAF
KSMF 261120Z 2612/2712 30007KT P6SM SCT250
     FM270300 20007KT P6SM BKN250=



000
FTUS46 KSTO 261120
TAFSMF
TAF
KSMF 261120Z 2612/2712 30007KT P6SM SCT250
     FM270300 20007KT P6SM BKN250=



000
FTUS46 KSTO 261120
TAFSAC
TAF
KSAC 261120Z 2612/2712 31008KT P6SM SCT250
     FM270300 22006KT P6SM BKN250=



000
FTUS46 KSTO 261120
TAFRBL
TAF
KRBL 261120Z 2612/2712 34009KT P6SM SCT250
     FM261800 35010G17KT P6SM BKN250
     FM270000 33006KT P6SM OVC100=



000
FTUS46 KSTO 260533
TAFSAC
TAF
KSAC 260533Z 2606/2706 28007KT P6SM SKC=



000
FTUS46 KSTO 260533
TAFMHR
TAF
KMHR 260533Z 2606/2706 VRB05KT P6SM SKC=



000
FTUS46 KSTO 260533
TAFSCK
TAF
KSCK 260533Z 2606/2706 27008KT P6SM SKC
     FM261600 31011KT P6SM SKC=



000
FTUS46 KSTO 260533
TAFRBL
TAF
KRBL 260533Z 2606/2706 34009KT P6SM SKC
      TEMPO 2615/2619 35013G20KT=



000
FTUS46 KSTO 260533
TAFSMF
TAF
KSMF 260533Z 2606/2706 30007KT P6SM SKC=



000
FTUS46 KSTO 260533
TAFRDD
TAF
KRDD 260533Z 2606/2706 35006KT P6SM SKC
      TEMPO 2615/2619 36013G20KT=



000
FTUS46 KSTO 252334
TAFSMF
TAF
KSMF 252334Z 2600/2624 32010G17KT P6SM SKC
     FM260200 32007KT P6SM SKC=



000
FTUS46 KSTO 252334
TAFMHR
TAF
KMHR 252334Z 2600/2624 28010G17KT P6SM SKC
     FM260200 VRB05KT P6SM SKC=



000
FTUS46 KSTO 252334
TAFSCK
TAF
KSCK 252334Z 2600/2624 30014G21KT P6SM SKC
     FM260600 27008KT P6SM SKC
     FM261600 31011KT P6SM SKC=



000
FTUS46 KSTO 252334
TAFSAC
TAF
KSAC 252334Z 2600/2624 31013G20KT P6SM SKC
     FM260200 31007KT P6SM SKC=



000
FTUS46 KSTO 252334
TAFRBL
TAF
KRBL 252334Z 2600/2624 31014G21KT P6SM SKC
     FM260300 32009KT P6SM SKC
      TEMPO 2615/2619 35013G20KT=



000
FTUS46 KSTO 252334
TAFRDD
TAF
KRDD 252334Z 2600/2624 36014G20KT P6SM SKC
     FM260300 35008KT P6SM SKC
      TEMPO 2615/2619 36013G20KT=



000
FTUS46 KSTO 252229 AAA
TAFSAC
TAF AMD
KSAC 252229Z 2522/2618 31006KT P6SM SKC=



000
FTUS46 KSTO 252225 AAA
TAFSMF
TAF AMD
KSMF 252225Z 2522/2618 32013G22KT P6SM SKC
     FM260300 32006KT P6SM SKC=



    US Dept of Commerce
    National Oceanic and Atmospheric Administration
    National Weather Service
    1325 East West Highway
    Silver Spring, MD 20910
    Page Author: NWS Internet Services Team
Disclaimer
Information Quality
Credits
Glossary
Privacy Policy
Freedom of Information Act (FOIA)
About Us
Career Opportunities